createdAt,value
2019-06-20T00:01:47.887Z,28.00
2019-06-20T00:04:16.602Z,28.00
2019-06-20T00:06:45.172Z,28.00
2019-06-20T00:09:13.818Z,27.90
2019-06-20T00:11:42.445Z,28.00
2019-06-20T00:14:10.996Z,28.00
2019-06-20T00:16:39.660Z,27.90
2019-06-20T00:19:08.944Z,27.90
2019-06-20T00:21:37.644Z,27.90
2019-06-20T00:24:06.251Z,27.90
2019-06-20T00:26:34.806Z,27.80
2019-06-20T00:29:03.835Z,27.80
2019-06-20T00:31:32.452Z,27.80
2019-06-20T00:34:01.019Z,27.70
2019-06-20T00:36:29.599Z,27.60
2019-06-20T00:38:58.197Z,26.40
2019-06-20T00:41:26.763Z,25.60
2019-06-20T00:43:55.329Z,25.50
2019-06-20T00:46:24.047Z,24.90
2019-06-20T00:48:52.605Z,24.50
2019-06-20T00:51:21.239Z,24.10
2019-06-20T00:53:49.820Z,23.80
2019-06-20T00:56:18.505Z,23.60
2019-06-20T00:58:47.389Z,23.60
2019-06-20T01:01:15.956Z,23.50
2019-06-20T01:03:44.527Z,23.40
2019-06-20T01:06:13.152Z,23.10
2019-06-20T01:08:41.785Z,22.80
2019-06-20T01:11:10.466Z,22.20
2019-06-20T01:13:39.009Z,21.50
2019-06-20T01:16:07.631Z,21.20
2019-06-20T01:18:36.195Z,22.20
2019-06-20T01:21:04.937Z,22.50
2019-06-20T01:23:33.495Z,21.60
2019-06-20T01:26:02.131Z,20.10
2019-06-20T01:28:30.832Z,19.40
2019-06-20T01:30:59.395Z,18.90
2019-06-20T01:33:27.973Z,18.70
2019-06-20T01:35:56.574Z,18.60
2019-06-20T01:38:25.148Z,18.60
2019-06-20T01:40:53.773Z,18.80
2019-06-20T01:43:22.458Z,18.90
2019-06-20T01:45:51.034Z,19.00
2019-06-20T01:48:19.664Z,19.10
2019-06-20T01:50:48.336Z,19.70
2019-06-20T01:53:16.912Z,19.90
2019-06-20T01:55:45.528Z,19.90
2019-06-20T01:58:14.097Z,19.90
2019-06-20T02:00:48.212Z,19.90
2019-06-20T02:03:17.859Z,19.50
2019-06-20T02:05:46.914Z,19.40
2019-06-20T02:08:16.218Z,19.50
2019-06-20T02:10:44.889Z,19.60
2019-06-20T02:13:13.624Z,19.50
2019-06-20T02:15:42.342Z,19.30
2019-06-20T02:18:11.068Z,19.10
2019-06-20T02:20:42.704Z,19.10
2019-06-20T02:23:11.755Z,18.90
2019-06-20T02:25:40.421Z,18.80
2019-06-20T02:28:09.050Z,18.80
2019-06-20T02:30:37.759Z,19.00
2019-06-20T02:33:06.485Z,19.50
2019-06-20T02:35:35.069Z,19.90
2019-06-20T02:38:03.739Z,20.50
2019-06-20T02:40:32.538Z,21.20
2019-06-20T02:43:01.169Z,21.90
2019-06-20T02:45:30.074Z,22.40
2019-06-20T02:47:58.757Z,22.90
2019-06-20T02:50:27.563Z,23.20
2019-06-20T02:52:56.292Z,23.50
2019-06-20T02:55:25.002Z,23.70
2019-06-20T02:57:53.558Z,23.90
2019-06-20T03:00:40.083Z,24.00
2019-06-20T03:03:08.723Z,24.10
2019-06-20T03:05:37.341Z,24.10
2019-06-20T03:08:05.936Z,24.20
2019-06-20T03:10:34.512Z,24.20
2019-06-20T03:13:03.522Z,24.20
2019-06-20T03:15:32.507Z,24.20
2019-06-20T03:18:01.540Z,24.20
2019-06-20T03:20:30.166Z,24.30
2019-06-20T03:22:58.769Z,24.30
2019-06-20T03:25:29.297Z,24.40
2019-06-20T03:27:57.954Z,24.40
2019-06-20T03:30:26.940Z,24.40
2019-06-20T03:32:55.592Z,24.40
2019-06-20T03:35:24.194Z,24.40
2019-06-20T03:37:57.403Z,24.40
2019-06-20T03:40:26.043Z,24.40
2019-06-20T03:42:54.624Z,24.30
2019-06-20T03:45:23.283Z,24.40
2019-06-20T03:47:51.845Z,24.40
2019-06-20T03:50:20.536Z,24.50
2019-06-20T03:52:50.798Z,24.50
2019-06-20T03:55:19.427Z,24.60
2019-06-20T03:57:48.080Z,24.60
2019-06-20T04:00:18.362Z,24.50
2019-06-20T04:02:46.938Z,24.40
2019-06-20T04:05:15.609Z,24.40
2019-06-20T04:07:44.151Z,24.50
2019-06-20T04:10:12.780Z,24.60
2019-06-20T04:12:41.388Z,24.60
2019-06-20T04:15:19.131Z,24.60
2019-06-20T04:17:40.388Z,24.60
2019-06-20T04:20:09.066Z,24.60
2019-06-20T04:22:37.630Z,24.60
2019-06-20T04:25:07.464Z,24.60
2019-06-20T04:27:36.108Z,24.20
2019-06-20T04:30:06.837Z,23.80
2019-06-20T04:32:35.442Z,23.60
2019-06-20T04:35:06.110Z,23.50
2019-06-20T04:37:34.858Z,23.60
2019-06-20T04:40:05.600Z,23.60
2019-06-20T04:42:34.159Z,23.70
2019-06-20T04:45:04.386Z,23.90
2019-06-20T04:47:32.970Z,24.00
2019-06-20T04:50:01.518Z,24.20
2019-06-20T04:52:30.122Z,24.30
2019-06-20T04:54:58.676Z,24.40
2019-06-20T04:57:27.237Z,24.50
2019-06-20T05:00:04.303Z,24.60
2019-06-20T05:02:35.540Z,24.60
2019-06-20T05:05:06.075Z,24.60
2019-06-20T05:07:34.699Z,24.50
2019-06-20T05:10:05.099Z,24.60
2019-06-20T05:12:33.695Z,24.60
2019-06-20T05:15:02.357Z,24.60
2019-06-20T05:17:30.947Z,24.60
2019-06-20T05:19:59.637Z,24.60
2019-06-20T05:22:28.222Z,24.70
2019-06-20T05:24:56.897Z,24.70
2019-06-20T05:27:25.465Z,24.70
2019-06-20T05:29:54.099Z,24.70
2019-06-20T05:32:22.693Z,24.80
2019-06-20T05:34:51.260Z,24.80
2019-06-20T05:37:19.830Z,24.70
2019-06-20T05:39:48.423Z,24.70
2019-06-20T05:42:17.055Z,24.70
2019-06-20T05:44:45.710Z,24.70
2019-06-20T05:47:14.305Z,24.60
2019-06-20T05:49:42.927Z,24.30
2019-06-20T05:52:11.494Z,23.40
2019-06-20T05:54:40.167Z,22.80
2019-06-20T05:57:08.769Z,22.70
2019-06-20T05:59:37.318Z,22.50
2019-06-20T06:02:05.892Z,21.80
2019-06-20T06:04:34.451Z,21.60
2019-06-20T06:07:03.087Z,21.90
2019-06-20T06:09:31.767Z,22.00
2019-06-20T06:12:00.317Z,22.00
2019-06-20T06:14:29.005Z,21.70
2019-06-20T06:16:57.640Z,21.40
2019-06-20T06:19:26.398Z,21.10
2019-06-20T06:21:54.953Z,20.80
2019-06-20T06:24:23.638Z,20.80
2019-06-20T06:26:52.311Z,20.70
2019-06-20T06:29:21.381Z,20.60
2019-06-20T06:31:50.039Z,20.60
2019-06-20T06:34:21.946Z,20.50
2019-06-20T06:36:49.251Z,20.50
2019-06-20T06:39:17.868Z,20.60
2019-06-20T06:41:46.623Z,20.80
2019-06-20T06:44:15.192Z,21.10
2019-06-20T06:46:52.092Z,21.30
2019-06-20T06:49:14.084Z,21.30
2019-06-20T06:51:42.757Z,21.40
2019-06-20T06:54:11.322Z,21.50
2019-06-20T06:56:39.901Z,21.80
2019-06-20T06:59:08.488Z,22.10
2019-06-20T07:01:37.256Z,22.40
2019-06-20T07:04:05.884Z,22.70
2019-06-20T07:06:34.563Z,23.00
2019-06-20T07:09:04.318Z,23.20
2019-06-20T07:11:32.878Z,23.40
2019-06-20T07:14:01.582Z,23.60
2019-06-20T07:16:30.196Z,23.70
2019-06-20T07:18:58.762Z,23.80
2019-06-20T07:21:27.369Z,23.80
2019-06-20T07:23:56.127Z,24.00
2019-06-20T07:26:24.763Z,24.00
2019-06-20T07:28:53.359Z,24.00
2019-06-20T07:31:21.941Z,24.10
2019-06-20T07:33:50.505Z,24.20
2019-06-20T07:36:19.206Z,24.00
2019-06-20T07:38:47.812Z,23.80
2019-06-20T07:41:16.427Z,23.80
2019-06-20T07:43:45.025Z,23.80
2019-06-20T07:46:13.602Z,24.00
2019-06-20T07:48:42.244Z,24.10
2019-06-20T07:51:10.867Z,24.00
2019-06-20T07:53:39.429Z,23.60
2019-06-20T07:56:09.503Z,23.50
2019-06-20T07:58:38.233Z,23.60
2019-06-20T08:01:06.992Z,23.60
2019-06-20T08:03:35.554Z,23.60
2019-06-20T08:06:04.411Z,23.60
2019-06-20T08:08:33.059Z,23.40
2019-06-20T08:11:01.639Z,23.40
2019-06-20T08:13:30.206Z,23.40
2019-06-20T08:15:58.948Z,23.30
2019-06-20T08:18:27.511Z,23.10
2019-06-20T08:20:56.154Z,23.00
2019-06-20T08:23:24.902Z,23.00
2019-06-20T08:25:53.544Z,23.00
2019-06-20T08:28:22.109Z,23.30
2019-06-20T08:30:50.702Z,23.50
2019-06-20T08:33:19.610Z,23.60
2019-06-20T08:35:48.185Z,23.80
2019-06-20T08:38:17.917Z,24.00
2019-06-20T08:40:46.468Z,24.10
2019-06-20T08:43:15.073Z,24.20
2019-06-20T08:45:44.505Z,24.00
2019-06-20T08:48:13.153Z,23.70
2019-06-20T08:50:42.650Z,23.70
2019-06-20T08:53:11.408Z,23.70
2019-06-20T08:55:40.217Z,23.60
2019-06-20T08:58:08.911Z,23.40
2019-06-20T09:00:39.536Z,23.40
2019-06-20T09:03:09.743Z,23.40
2019-06-20T09:05:38.618Z,23.10
2019-06-20T09:08:11.196Z,23.00
2019-06-20T09:10:42.028Z,22.90
2019-06-20T09:13:11.986Z,22.80
2019-06-20T09:15:41.670Z,22.70
2019-06-20T09:18:10.432Z,22.70
2019-06-20T09:20:40.543Z,22.80
2019-06-20T09:23:09.432Z,22.80
2019-06-20T09:25:38.562Z,22.80
2019-06-20T09:28:08.257Z,22.90
2019-06-20T09:30:37.387Z,22.90
2019-06-20T09:33:06.160Z,22.90
2019-06-20T09:35:35.608Z,22.80
2019-06-20T09:38:04.512Z,22.80
2019-06-20T09:40:33.185Z,22.80
2019-06-20T09:43:02.911Z,22.80
2019-06-20T09:45:32.029Z,22.90
2019-06-20T09:48:00.804Z,23.00
2019-06-20T09:50:29.508Z,23.10
2019-06-20T09:52:58.377Z,23.20
2019-06-20T09:55:27.171Z,23.30
2019-06-20T09:57:55.985Z,23.60
2019-06-20T10:00:27.226Z,23.70
2019-06-20T10:02:57.646Z,23.90
2019-06-20T10:05:26.165Z,24.00
2019-06-20T10:07:54.750Z,24.00
2019-06-20T10:10:28.627Z,23.90
2019-06-20T10:12:57.804Z,23.80
2019-06-20T10:15:31.232Z,23.80
2019-06-20T10:17:59.961Z,23.90
2019-06-20T10:20:29.080Z,24.00
2019-06-20T10:22:57.712Z,24.20
2019-06-20T10:25:26.360Z,24.10
2019-06-20T10:27:55.088Z,24.10
2019-06-20T10:30:25.104Z,23.90
2019-06-20T10:32:53.745Z,23.80
2019-06-20T10:35:22.656Z,23.80
2019-06-20T10:37:53.032Z,23.70
2019-06-20T10:40:22.289Z,23.70
2019-06-20T10:42:52.753Z,23.80
2019-06-20T10:45:24.200Z,23.70
2019-06-20T10:47:53.385Z,23.90
2019-06-20T10:50:23.315Z,24.00
2019-06-20T10:52:52.632Z,23.90
2019-06-20T10:55:22.152Z,23.90
2019-06-20T10:57:51.918Z,23.80
2019-06-20T11:00:30.913Z,23.80
2019-06-20T11:02:52.026Z,23.70
2019-06-20T11:05:21.245Z,23.80
2019-06-20T11:07:50.305Z,24.00
2019-06-20T11:10:20.029Z,24.20
2019-06-20T11:12:54.947Z,24.50
2019-06-20T11:15:20.789Z,24.50
2019-06-20T11:17:49.512Z,24.30
2019-06-20T11:20:19.021Z,24.20
2019-06-20T11:22:47.987Z,24.20
2019-06-20T11:25:19.408Z,24.00
2019-06-20T11:27:47.544Z,24.10
2019-06-20T11:30:18.832Z,24.30
2019-06-20T11:32:48.753Z,24.50
2019-06-20T11:35:17.601Z,24.60
2019-06-20T11:37:47.251Z,24.80
2019-06-20T11:40:16.341Z,24.90
2019-06-20T11:42:44.943Z,24.70
2019-06-20T11:45:15.331Z,24.80
2019-06-20T11:47:44.025Z,24.90
2019-06-20T11:50:12.934Z,25.00
2019-06-20T11:52:45.331Z,25.10
2019-06-20T11:55:12.340Z,25.10
2019-06-20T11:57:40.990Z,25.00
2019-06-20T12:00:11.132Z,25.00
2019-06-20T12:02:41.088Z,24.80
2019-06-20T12:05:18.769Z,24.60
2019-06-20T12:07:47.895Z,24.60
2019-06-20T12:10:17.401Z,24.60
2019-06-20T12:12:46.916Z,24.70
2019-06-20T12:15:16.311Z,24.70
2019-06-20T12:17:45.340Z,24.70
2019-06-20T12:20:16.266Z,24.80
2019-06-20T12:22:45.111Z,25.00
2019-06-20T12:25:14.711Z,25.10
2019-06-20T12:27:43.563Z,25.10
2019-06-20T12:30:14.679Z,25.20
2019-06-20T12:32:44.726Z,25.40
2019-06-20T12:35:13.991Z,25.50
2019-06-20T12:37:42.949Z,25.70
2019-06-20T12:40:13.307Z,25.90
2019-06-20T12:42:43.204Z,25.90
2019-06-20T12:45:14.304Z,26.00
2019-06-20T12:47:43.836Z,25.90
2019-06-20T12:50:14.757Z,25.90
2019-06-20T12:52:45.428Z,25.70
2019-06-20T12:55:14.078Z,25.50
2019-06-20T12:57:44.025Z,25.50
2019-06-20T13:00:14.583Z,25.60
2019-06-20T13:02:43.712Z,25.70
2019-06-20T13:05:13.479Z,25.80
2019-06-20T13:07:44.126Z,25.60
2019-06-20T13:10:13.041Z,25.60
2019-06-20T13:12:42.758Z,25.50
2019-06-20T13:15:12.513Z,25.60
2019-06-20T13:17:43.065Z,25.70
2019-06-20T13:20:12.734Z,25.80
2019-06-20T13:22:42.727Z,25.90
2019-06-20T13:25:13.075Z,25.90
2019-06-20T13:27:41.713Z,26.00
2019-06-20T13:30:11.443Z,26.10
2019-06-20T13:32:42.031Z,26.00
2019-06-20T13:35:10.865Z,26.20
2019-06-20T13:37:40.259Z,26.20
2019-06-20T13:40:11.099Z,26.30
2019-06-20T13:42:41.960Z,26.50
2019-06-20T13:45:22.338Z,26.60
2019-06-20T13:47:51.319Z,26.50
2019-06-20T13:50:23.501Z,26.40
2019-06-20T13:52:52.217Z,26.30
2019-06-20T13:55:21.204Z,26.20
2019-06-20T13:57:49.857Z,26.00
2019-06-20T14:00:21.127Z,25.80
2019-06-20T14:02:51.419Z,25.70
2019-06-20T14:05:20.512Z,25.40
2019-06-20T14:07:51.842Z,25.10
2019-06-20T14:10:20.541Z,24.60
2019-06-20T14:12:49.339Z,24.20
2019-06-20T14:15:18.542Z,23.90
2019-06-20T14:17:47.551Z,23.60
2019-06-20T14:20:17.728Z,23.30
2019-06-20T14:22:46.733Z,22.80
2019-06-20T14:25:15.900Z,22.30
2019-06-20T14:27:46.016Z,21.90
2019-06-20T14:30:15.039Z,21.70
2019-06-20T14:32:43.710Z,21.60
2019-06-20T14:35:12.619Z,21.40
2019-06-20T14:37:43.506Z,21.20
2019-06-20T14:40:12.646Z,20.90
2019-06-20T14:42:41.362Z,20.60
2019-06-20T14:45:10.616Z,20.40
2019-06-20T14:47:39.328Z,20.50
2019-06-20T14:50:11.509Z,20.60
2019-06-20T14:52:40.253Z,20.80
2019-06-20T14:55:09.218Z,21.20
2019-06-20T14:57:37.912Z,21.10
2019-06-20T15:00:10.320Z,21.30
2019-06-20T15:02:39.320Z,21.20
2019-06-20T15:05:18.390Z,21.00
2019-06-20T15:07:47.802Z,21.00
2019-06-20T15:10:17.754Z,21.30
2019-06-20T15:12:48.311Z,21.20
2019-06-20T15:15:16.964Z,21.40
2019-06-20T15:17:48.822Z,21.20
2019-06-20T15:20:17.941Z,21.20
2019-06-20T15:22:47.364Z,21.60
2019-06-20T15:25:17.810Z,22.10
2019-06-20T15:27:47.960Z,22.60
2019-06-20T15:30:17.666Z,22.90
2019-06-20T15:33:00.954Z,23.20
2019-06-20T15:35:17.334Z,23.50
2019-06-20T15:37:50.200Z,23.60
2019-06-20T15:40:19.465Z,23.50
2019-06-20T15:42:51.176Z,23.50
2019-06-20T15:45:20.017Z,23.50
2019-06-20T15:47:48.631Z,23.30
2019-06-20T15:50:17.627Z,23.30
2019-06-20T15:52:46.347Z,23.30
2019-06-20T15:55:19.906Z,23.20
2019-06-20T15:57:53.784Z,23.20
2019-06-20T16:00:19.019Z,23.30
2019-06-20T16:02:48.393Z,23.40
2019-06-20T16:05:17.286Z,23.50
2019-06-20T16:07:46.048Z,23.70
2019-06-20T16:10:15.260Z,23.80
2019-06-20T16:12:43.960Z,23.90
2019-06-20T16:15:15.596Z,24.00
2019-06-20T16:17:44.310Z,24.10
2019-06-20T16:20:19.569Z,24.10
2019-06-20T16:22:48.154Z,24.20
2019-06-20T16:25:17.265Z,24.30
2019-06-20T16:27:45.907Z,24.30
2019-06-20T16:30:14.743Z,24.40
2019-06-20T16:32:43.341Z,24.40
2019-06-20T16:35:13.254Z,24.40
2019-06-20T16:37:41.818Z,24.40
2019-06-20T16:40:12.234Z,24.40
2019-06-20T16:42:40.826Z,24.40
2019-06-20T16:45:10.852Z,24.30
2019-06-20T16:47:39.982Z,24.40
2019-06-20T16:50:09.540Z,24.40
2019-06-20T16:52:38.360Z,24.40
2019-06-20T16:55:07.701Z,24.30
2019-06-20T16:57:36.381Z,24.30
2019-06-20T17:00:09.476Z,24.30
2019-06-20T17:02:38.298Z,24.20
2019-06-20T17:05:07.219Z,24.20
2019-06-20T17:07:35.802Z,24.20
2019-06-20T17:10:06.230Z,24.20
2019-06-20T17:12:34.875Z,24.20
2019-06-20T17:15:04.511Z,24.30
2019-06-20T17:17:33.256Z,24.30
2019-06-20T17:20:02.053Z,24.30
2019-06-20T17:22:30.686Z,24.40
2019-06-20T17:24:59.332Z,24.40
2019-06-20T17:27:27.899Z,24.40
2019-06-20T17:29:56.456Z,24.40
2019-06-20T17:32:25.134Z,24.50
2019-06-20T17:34:53.770Z,24.50
2019-06-20T17:37:22.359Z,24.40
2019-06-20T17:39:50.970Z,24.50
2019-06-20T17:42:19.614Z,24.50
2019-06-20T17:44:48.161Z,24.60
2019-06-20T17:47:16.782Z,25.30
2019-06-20T17:49:45.325Z,26.50
2019-06-20T17:52:13.970Z,27.40
2019-06-20T17:54:42.565Z,28.10
2019-06-20T17:57:11.135Z,28.70
2019-06-20T17:59:39.753Z,29.10
2019-06-20T18:02:08.393Z,29.10
2019-06-20T18:04:36.956Z,29.00
2019-06-20T18:07:05.687Z,28.70
2019-06-20T18:09:34.302Z,28.60
2019-06-20T18:12:03.059Z,28.50
2019-06-20T18:14:34.081Z,28.30
2019-06-20T18:17:02.077Z,28.40
2019-06-20T18:19:30.634Z,28.60
2019-06-20T18:22:00.595Z,28.50
2019-06-20T18:24:29.161Z,28.50
2019-06-20T18:26:57.776Z,28.50
2019-06-20T18:29:26.356Z,28.50
2019-06-20T18:31:55.026Z,28.30
2019-06-20T18:34:29.999Z,27.80
2019-06-20T18:36:53.944Z,27.40
2019-06-20T18:39:22.564Z,27.00
2019-06-20T18:41:51.301Z,26.60
2019-06-20T18:44:19.942Z,26.20
2019-06-20T18:46:48.533Z,25.90
2019-06-20T18:49:17.121Z,25.70
2019-06-20T18:51:45.693Z,25.50
2019-06-20T18:54:14.286Z,25.40
2019-06-20T18:56:42.958Z,25.30
2019-06-20T18:59:11.687Z,25.20
2019-06-20T19:01:42.070Z,25.10
2019-06-20T19:04:10.664Z,25.00
2019-06-20T19:06:39.247Z,25.00
2019-06-20T19:09:10.943Z,24.90
2019-06-20T19:11:39.598Z,24.90
2019-06-20T19:14:12.467Z,24.90
2019-06-20T19:16:39.099Z,24.90
2019-06-20T19:19:09.723Z,24.90
2019-06-20T19:21:38.444Z,24.90
2019-06-20T19:24:07.167Z,24.90
2019-06-20T19:26:36.112Z,24.80
2019-06-20T19:29:04.835Z,24.80
2019-06-20T19:31:33.640Z,24.80
2019-06-20T19:34:02.222Z,24.80
2019-06-20T19:36:30.810Z,24.80
2019-06-20T19:38:59.411Z,24.80
2019-06-20T19:41:28.013Z,24.70
2019-06-20T19:43:56.671Z,24.70
2019-06-20T19:46:25.320Z,24.70
2019-06-20T19:48:53.971Z,24.70
2019-06-20T19:51:22.963Z,24.60
2019-06-20T19:53:51.669Z,24.60
2019-06-20T19:56:20.292Z,24.60
2019-06-20T19:58:48.968Z,24.60
2019-06-20T20:01:17.542Z,24.60
2019-06-20T20:03:46.361Z,24.50
2019-06-20T20:06:14.970Z,24.50
2019-06-20T20:08:43.628Z,24.50
2019-06-20T20:11:12.188Z,24.50
2019-06-20T20:13:40.801Z,24.50
2019-06-20T20:16:09.838Z,24.50
2019-06-20T20:18:38.464Z,24.50
2019-06-20T20:21:07.077Z,24.60
2019-06-20T20:23:35.650Z,24.50
2019-06-20T20:26:04.314Z,24.50
2019-06-20T20:28:32.889Z,24.50
2019-06-20T20:31:01.839Z,24.50
2019-06-20T20:33:30.572Z,24.40
2019-06-20T20:36:01.906Z,24.40
2019-06-20T20:38:29.540Z,24.30
2019-06-20T20:40:58.228Z,24.30
2019-06-20T20:43:26.766Z,24.30
2019-06-20T20:45:55.371Z,24.30
2019-06-20T20:48:24.094Z,24.40
2019-06-20T20:50:52.757Z,24.40
2019-06-20T20:53:21.732Z,24.40
2019-06-20T20:55:50.300Z,24.40
2019-06-20T20:58:18.941Z,24.30
2019-06-20T21:01:02.561Z,24.30
2019-06-20T21:03:31.128Z,24.30
2019-06-20T21:05:59.764Z,24.20
2019-06-20T21:08:30.874Z,24.20
2019-06-20T21:10:59.234Z,24.20
2019-06-20T21:13:29.300Z,24.20
2019-06-20T21:15:58.087Z,24.20
2019-06-20T21:18:26.676Z,24.20
2019-06-20T21:20:55.295Z,24.20
2019-06-20T21:23:23.945Z,24.20
2019-06-20T21:25:52.665Z,24.20
2019-06-20T21:28:21.652Z,24.20
2019-06-20T21:30:50.248Z,24.20
2019-06-20T21:33:19.354Z,24.20
2019-06-20T21:35:48.118Z,24.20
2019-06-20T21:38:16.681Z,24.20
2019-06-20T21:40:45.333Z,24.10
2019-06-20T21:43:13.990Z,24.10
2019-06-20T21:45:42.565Z,24.10
2019-06-20T21:48:11.177Z,24.00
2019-06-20T21:50:39.826Z,24.00
2019-06-20T21:53:08.515Z,24.00
2019-06-20T21:55:37.106Z,24.00
2019-06-20T21:58:05.743Z,24.00
2019-06-20T22:00:39.687Z,24.00
2019-06-20T22:03:09.439Z,24.00
2019-06-20T22:05:38.743Z,24.00
2019-06-20T22:08:07.685Z,24.00
2019-06-20T22:10:39.186Z,24.00
2019-06-20T22:13:07.811Z,24.00
2019-06-20T22:15:36.619Z,24.00
2019-06-20T22:18:05.458Z,24.00
2019-06-20T22:20:34.023Z,24.00
2019-06-20T22:23:02.639Z,24.00
2019-06-20T22:25:31.351Z,23.90
2019-06-20T22:28:00.008Z,23.90
2019-06-20T22:30:49.718Z,23.90
2019-06-20T22:33:18.408Z,23.90
2019-06-20T22:35:46.992Z,23.90
2019-06-20T22:38:15.656Z,23.80
2019-06-20T22:40:44.734Z,23.80
2019-06-20T22:43:13.369Z,23.80
2019-06-20T22:45:42.050Z,23.80
2019-06-20T22:48:10.698Z,23.80
2019-06-20T22:50:39.266Z,23.80
2019-06-20T22:53:08.598Z,23.80
2019-06-20T22:55:37.286Z,23.70
2019-06-20T22:58:06.529Z,23.70
2019-06-20T23:00:35.370Z,23.70
2019-06-20T23:03:05.274Z,23.70
2019-06-20T23:05:34.200Z,23.70
2019-06-20T23:08:02.888Z,23.70
2019-06-20T23:10:31.598Z,23.70
2019-06-20T23:13:00.206Z,23.60
2019-06-20T23:15:28.948Z,23.60
2019-06-20T23:17:57.575Z,23.60
2019-06-20T23:20:26.277Z,23.60
2019-06-20T23:22:54.904Z,23.60
2019-06-20T23:25:23.638Z,23.50
2019-06-20T23:27:52.196Z,23.20
2019-06-20T23:30:21.463Z,23.10
2019-06-20T23:32:50.023Z,23.10
2019-06-20T23:35:18.727Z,23.20
2019-06-20T23:37:47.399Z,23.20
2019-06-20T23:40:17.297Z,23.30
2019-06-20T23:42:45.913Z,23.30
2019-06-20T23:45:14.867Z,23.30
2019-06-20T23:47:43.432Z,23.40
2019-06-20T23:50:18.312Z,23.40
2019-06-20T23:53:06.010Z,23.40
2019-06-20T23:55:34.644Z,23.40
2019-06-20T23:58:03.235Z,23.40
